• Join FlightAware (Why Join?)
  • Login
  • US Flag 
04:38AM EDT


 

Airport Tracker/Info


-or-


 

Live Flight TrackerFlight Track Log ✈ SWA1319 ✈ 18-Apr-2013 ✈ KOAK - KLAX

Flight Track Log - Related Links

Times and Time Zones

All times are in EDT time to prevent confusion due to time zone crossing. See the SWA1319 flight status page for this flight to view local times or setup timezone preferences in your user account.

Time Position Orientation Groundspeed Altitude Reporting Facility
EDT Latitude Longitude Course Direction KTS MPH feet Rate Location/Type
01:20AM 37.7400 -122.3217 285° West 207 238 3,300  Level Oakland Center
01:21AM 37.7169 -122.3903 247° West 255 293 6,100 3,240 Climbing Oakland Center
01:22AM 37.6381 -122.3836 176° South 282 325 9,900 3,000 Climbing Oakland Center
01:23AM 37.2544 -122.2922 122° Southeast  Level FlightAware Approximate
01:23AM 37.5483 -122.3758 176° South 321 369 12,300  Level Oakland Center
01:24AM 37.2248 -122.1745 113° Southeast  Level FlightAware Approximate
01:24AM 37.4506 -122.3472 167° South 367 422 15,900  Level Oakland Center
01:25AM 37.1995 -122.0564 110° East  Level FlightAware Approximate
01:25AM 37.3850 -122.2542 132° Southeast 366 421 18,300  Level Oakland Center
01:26AM 37.3111 -122.1528 132° Southeast 390 449 20,800 2,400 Climbing Oakland Center
01:27AM 37.2347 -122.0519 134° Southeast 398 458 23,200 2,400 Climbing Oakland Center
01:28AM 37.1392 -121.9217 133° Southeast 421 484 25,800 2,220 Climbing Oakland Center
01:29AM 37.0564 -121.8117 133° Southeast 431 496 27,800 1,800 Climbing Oakland Center
01:30AM 36.9714 -121.7006 134° Southeast 440 506 29,500 1,500 Climbing Oakland Center
01:31AM 36.8850 -121.5847 133° Southeast 452 520 30,900 1,440 Climbing Oakland Center
01:32AM 36.8044 -121.4800 134° Southeast 460 529 32,500 1,620 Climbing Oakland Center
01:33AM 36.7181 -121.3619 132° Southeast 461 531 34,300 1,740 Climbing Oakland Center
01:34AM 36.6319 -121.2472 133° Southeast 455 524 36,100 1,320 Climbing Oakland Center
01:35AM 36.5458 -121.1333 133° Southeast 452 520 37,000 420 Climbing Oakland Center
01:36AM 36.4353 -120.9933 134° Southeast 471 542 37,000 -60 Level Oakland Center
01:37AM 36.3433 -120.8714 133° Southeast 481 554 36,900 -60 Descending Oakland Center
01:38AM 36.2533 -120.7536 133° Southeast 474 545 36,900  Level Oakland Center
01:39AM 36.1647 -120.6406 134° Southeast 461 531 37,000  Climbing Oakland Center
01:40AM 36.0764 -120.5264 134° Southeast 459 528 37,000  Level Oakland Center
01:41AM 35.9878 -120.4097 133° Southeast 462 532 37,000  Level Oakland Center
01:42AM 35.8967 -120.2950 134° Southeast 464 534 37,000 -60 Level Oakland Center
01:43AM 35.8047 -120.1783 134° Southeast 469 540 36,900 -60 Descending Oakland Center
01:44AM 35.7144 -120.0647 134° Southeast 463 533 36,900 -300 Level Oakland Center
01:45AM 35.6236 -119.9564 136° Southeast 454 522 36,300 -840 Descending Oakland Center
01:47AM 35.5147 -119.8644 145° Southeast 466 536 35,300 -660 Descending Oakland Center
01:48AM 35.4094 -119.7725 145° Southeast 462 532 35,000 -180 Descending Oakland Center
01:49AM 35.3053 -119.6844 145° Southeast 454 522 35,000  Level Oakland Center
01:50AM 35.1986 -119.5919 145° Southeast 464 534 35,000 -240 Level Oakland Center
01:51AM 35.0886 -119.4994 145° Southeast 475 547 34,600 -1,680 Descending Oakland Center
01:52AM 34.9808 -119.4067 145° Southeast 474 545 31,600 -3,060 Descending Oakland Center
01:53AM 34.8739 -119.3167 145° Southeast 469 540 28,500 -2,820 Descending Oakland Center
01:54AM 34.7683 -119.2261 145° Southeast 467 537 26,000 -2,460 Descending Oakland Center
01:55AM 34.6664 -119.1397 145° Southeast 454 522 23,600 -2,400 Descending Oakland Center
01:56AM 34.5528 -119.0453 146° Southeast 425 489 21,000 -2,280 Descending Los Angeles Center
01:57AM 34.4592 -118.9675 146° Southeast 412 474 18,800 -2,220 Descending Los Angeles Center
01:58AM 34.3672 -118.8903 145° Southeast 399 459 16,600 -2,340 Descending Los Angeles Center
01:59AM 34.2647 -118.8469 161° South 394 453 14,100 -2,220 Descending Los Angeles Center
02:00AM 34.1689 -118.8039 160° South 371 427 12,100 -1,800 Descending Los Angeles Center
02:01AM 34.1144 -118.6919 120° Southeast 325 374 10,500 -1,140 Descending Los Angeles Center
02:02AM 34.0725 -118.5969 118° Southeast 317 365 9,900 -1,020 Descending Los Angeles Center
02:03AM 34.0356 -118.5139 118° Southeast 283 326 8,500 -1,380 Descending Los Angeles Center
02:04AM 34.0147 -118.4350 108° East 258 297 7,100 -1,140 Descending Los Angeles Center
02:05AM 34.0272 -118.3569 79° East 244 281 6,200 -1,080 Descending Los Angeles Center
02:06AM 34.0283 -118.3011 89° East 185 213 5,000 -1,380 Descending Los Angeles Center
02:07AM 33.9892 -118.2922 169° South 160 184 3,400 -1,680 Descending Los Angeles Center
02:08AM 33.9606 -118.3278 226° Southwest 160 184 1,700 -1,380 Descending Los Angeles Center
02:09AM 33.9564 -118.3742 264° West 146 168 600 -840 Descending Los Angeles Center
02:10AM 33.9497 -118.4228 261° West 142 163 100 -540 Descending Los Angeles Center
02:12AM 33.9425 -118.4081 239° Southwest  Level Estimated